createdAt,value
2022-08-22T00:01:23.905Z,1.80
2022-08-22T00:03:01.344Z,1.10
2022-08-22T00:03:53.471Z,1.80
2022-08-22T00:06:29.163Z,1.90
2022-08-22T00:09:34.538Z,1.57
2022-08-22T00:12:13.019Z,1.57
2022-08-22T00:14:47.021Z,1.50
2022-08-22T00:17:27.706Z,1.40
2022-08-22T00:20:12.440Z,1.77
2022-08-22T00:22:50.894Z,1.83
2022-08-22T00:25:29.415Z,1.67
2022-08-22T00:28:05.145Z,1.80
2022-08-22T00:30:38.435Z,1.60
2022-08-22T00:33:13.761Z,1.30
2022-08-22T00:35:48.401Z,1.47
2022-08-22T00:38:38.072Z,1.70
2022-08-22T00:41:22.411Z,1.80
2022-08-22T00:43:54.981Z,1.70
2022-08-22T00:46:46.512Z,1.47
2022-08-22T00:49:33.049Z,1.50
2022-08-22T00:52:18.468Z,1.50
2022-08-22T00:55:18.626Z,1.73
2022-08-22T00:58:09.598Z,1.73
2022-08-22T01:00:43.779Z,1.70
2022-08-22T01:03:40.364Z,1.83
2022-08-22T01:06:22.272Z,1.57
2022-08-22T01:08:51.399Z,1.60
2022-08-22T01:11:27.328Z,2.08
2022-08-22T01:14:35.147Z,1.73
2022-08-22T01:17:15.797Z,1.60
2022-08-22T01:20:01.140Z,1.80
2022-08-22T01:22:45.935Z,1.97
2022-08-22T01:25:39.626Z,2.00
2022-08-22T01:28:27.933Z,1.90
2022-08-22T01:31:16.534Z,1.80
2022-08-22T01:34:20.568Z,1.80
2022-08-22T01:37:24.080Z,1.80
2022-08-22T01:40:12.114Z,2.03
2022-08-22T01:43:07.859Z,2.03
2022-08-22T01:45:40.268Z,2.13
2022-08-22T01:48:06.674Z,2.10
2022-08-22T01:50:40.001Z,1.80
2022-08-22T01:53:09.828Z,1.87
2022-08-22T01:56:14.693Z,1.97
2022-08-22T01:58:54.228Z,2.00
2022-08-22T02:01:49.900Z,1.90
2022-08-22T02:04:29.326Z,1.90
2022-08-22T02:07:13.925Z,1.88
2022-08-22T02:10:05.410Z,1.93
2022-08-22T02:12:41.312Z,1.60
2022-08-22T02:15:37.480Z,1.67
2022-08-22T02:18:07.099Z,2.20
2022-08-22T02:20:48.776Z,1.85
2022-08-22T02:23:18.040Z,2.17
2022-08-22T02:26:03.551Z,2.05
2022-08-22T02:28:56.464Z,1.90
2022-08-22T02:31:38.888Z,2.03
2022-08-22T02:34:52.919Z,2.03
2022-08-22T02:37:30.494Z,1.90
2022-08-22T02:40:14.289Z,2.20
2022-08-22T02:43:03.188Z,2.00
2022-08-22T02:45:41.712Z,1.93
2022-08-22T02:48:37.029Z,1.87
2022-08-22T02:51:11.011Z,1.90
2022-08-22T02:53:52.861Z,1.90
2022-08-22T02:56:33.473Z,1.77
2022-08-22T02:59:24.273Z,2.03
2022-08-22T03:01:54.299Z,2.13
2022-08-22T03:04:44.507Z,1.90
2022-08-22T03:07:20.639Z,1.73
2022-08-22T03:10:01.198Z,2.20
2022-08-22T03:12:57.501Z,2.30
2022-08-22T03:15:33.840Z,2.20
2022-08-22T03:18:12.869Z,1.70
2022-08-22T03:21:06.877Z,1.98
2022-08-22T03:23:40.974Z,1.90
2022-08-22T03:26:18.663Z,1.67
2022-08-22T03:28:54.387Z,2.00
2022-08-22T03:31:27.052Z,1.90
2022-08-22T03:34:16.554Z,1.80
2022-08-22T03:37:01.374Z,1.70
2022-08-22T03:39:51.969Z,1.77
2022-08-22T03:42:49.098Z,1.90
2022-08-22T03:45:30.800Z,1.83
2022-08-22T03:48:32.481Z,2.37
2022-08-22T03:51:25.507Z,2.20
2022-08-22T03:54:37.366Z,1.73
2022-08-22T03:57:41.570Z,1.63
2022-08-22T04:00:14.298Z,1.60
2022-08-22T04:03:13.676Z,2.20
2022-08-22T04:05:55.370Z,1.83
2022-08-22T04:08:44.789Z,1.73
2022-08-22T04:11:30.286Z,2.10
2022-08-22T04:14:14.255Z,1.77
2022-08-22T04:17:02.369Z,2.17
2022-08-22T04:19:37.925Z,2.10
2022-08-22T04:22:22.686Z,1.67
2022-08-22T04:25:10.814Z,2.20
2022-08-22T04:28:00.603Z,1.90
2022-08-22T04:33:20.087Z,2.00
2022-08-22T04:35:59.790Z,2.00
2022-08-22T04:38:31.459Z,1.98
2022-08-22T04:41:07.298Z,2.00
2022-08-22T04:43:59.961Z,1.77
2022-08-22T04:46:39.050Z,1.60
2022-08-22T04:49:42.041Z,2.00
2022-08-22T04:52:17.827Z,2.20
2022-08-22T04:55:00.715Z,2.27
2022-08-22T04:58:06.689Z,1.77
2022-08-22T05:01:11.854Z,1.93
2022-08-22T05:03:46.011Z,1.67
2022-08-22T05:06:14.993Z,1.73
2022-08-22T05:08:42.663Z,1.83
2022-08-22T05:11:10.976Z,2.27
2022-08-22T05:13:41.325Z,2.07
2022-08-22T05:16:13.755Z,1.83
2022-08-22T05:18:46.904Z,2.00
2022-08-22T05:21:15.309Z,1.80
2022-08-22T05:23:46.507Z,1.90
2022-08-22T05:26:13.812Z,2.90
2022-08-22T05:28:48.331Z,2.03
2022-08-22T05:31:24.260Z,2.60
2022-08-22T05:33:55.290Z,4.13
2022-08-22T05:36:25.431Z,2.73
2022-08-22T05:38:56.431Z,2.10
2022-08-22T05:41:27.201Z,2.10
2022-08-22T05:43:54.158Z,1.90
2022-08-22T05:46:27.190Z,1.90
2022-08-22T05:48:59.685Z,2.07
2022-08-22T05:51:34.429Z,2.20
2022-08-22T05:54:09.566Z,2.13
2022-08-22T05:56:40.711Z,2.00
2022-08-22T05:59:21.146Z,2.53
2022-08-22T06:01:50.631Z,2.03
2022-08-22T06:04:27.807Z,1.90
2022-08-22T06:07:03.664Z,1.93
2022-08-22T06:09:48.290Z,1.80
2022-08-22T06:12:31.166Z,1.90
2022-08-22T06:15:24.016Z,2.10
2022-08-22T06:20:48.867Z,1.93
2022-08-22T06:23:23.814Z,2.13
2022-08-22T06:25:51.471Z,2.03
2022-08-22T06:28:23.731Z,2.10
2022-08-22T06:30:52.703Z,2.33
2022-08-22T06:33:25.588Z,2.20
2022-08-22T06:36:07.333Z,2.00
2022-08-22T06:39:32.429Z,2.47
2022-08-22T06:42:13.239Z,2.20
2022-08-22T06:45:08.646Z,2.03
2022-08-22T06:47:50.235Z,2.00
2022-08-22T06:50:30.920Z,3.20
2022-08-22T06:53:07.477Z,2.10
2022-08-22T06:55:35.748Z,1.67
2022-08-22T06:58:05.481Z,2.00
2022-08-22T07:00:34.625Z,2.42
2022-08-22T07:03:24.005Z,2.17
2022-08-22T07:05:54.130Z,2.42
2022-08-22T07:08:22.204Z,1.90
2022-08-22T07:11:06.671Z,2.10
2022-08-22T07:13:36.042Z,1.90
2022-08-22T07:18:31.380Z,1.65
2022-08-22T07:21:00.572Z,1.60
2022-08-22T07:26:21.758Z,1.80
2022-08-22T07:29:15.060Z,2.20
2022-08-22T07:31:49.678Z,1.50
2022-08-22T07:34:46.986Z,1.67
2022-08-22T07:37:25.083Z,1.50
2022-08-22T07:39:53.766Z,2.10
2022-08-22T07:42:38.642Z,1.70
2022-08-22T07:45:15.465Z,2.30
2022-08-22T07:48:06.497Z,2.10
2022-08-22T07:50:38.849Z,2.10
2022-08-22T07:53:29.046Z,2.17
2022-08-22T07:55:56.538Z,2.07
2022-08-22T07:58:25.650Z,2.23
2022-08-22T08:00:53.112Z,1.97
2022-08-22T08:03:22.218Z,2.00
2022-08-22T08:05:49.194Z,2.50
2022-08-22T08:08:25.159Z,1.90
2022-08-22T08:10:54.405Z,1.80
2022-08-22T08:13:35.105Z,1.77
2022-08-22T08:16:02.928Z,1.40
2022-08-22T08:18:30.995Z,1.63
2022-08-22T08:21:00.850Z,1.70
2022-08-22T08:23:31.940Z,2.00
2022-08-22T08:26:09.455Z,1.50
2022-08-22T08:28:43.141Z,2.13
2022-08-22T08:31:16.175Z,2.17
2022-08-22T08:33:45.245Z,1.83
2022-08-22T08:36:44.626Z,1.90
2022-08-22T08:39:23.450Z,1.70
2022-08-22T08:44:55.796Z,1.80
2022-08-22T08:48:00.202Z,1.70
2022-08-22T08:50:51.713Z,2.00
2022-08-22T08:53:32.456Z,2.10
2022-08-22T08:56:23.208Z,1.97
2022-08-22T08:59:10.086Z,1.97
2022-08-22T09:02:05.258Z,1.90
2022-08-22T09:04:40.339Z,1.80
2022-08-22T09:07:28.120Z,2.13
2022-08-22T09:10:23.340Z,2.00
2022-08-22T09:13:21.621Z,1.90
2022-08-22T09:16:17.485Z,2.13
2022-08-22T09:19:18.091Z,2.20
2022-08-22T09:22:14.368Z,2.10
2022-08-22T09:24:59.630Z,2.27
2022-08-22T09:27:33.361Z,2.70
2022-08-22T09:30:12.445Z,2.30
2022-08-22T09:32:52.210Z,2.33
2022-08-22T09:35:25.457Z,3.00
2022-08-22T09:38:11.379Z,2.23
2022-08-22T09:41:13.395Z,2.40
2022-08-22T09:43:48.776Z,2.30
2022-08-22T09:46:18.635Z,2.23
2022-08-22T09:49:01.828Z,2.50
2022-08-22T09:52:15.121Z,2.23
2022-08-22T09:54:54.857Z,2.37
2022-08-22T09:57:31.386Z,2.03
2022-08-22T10:00:15.072Z,2.33
2022-08-22T10:02:52.778Z,1.93
2022-08-22T10:05:35.256Z,2.50
2022-08-22T10:08:38.561Z,2.30
2022-08-22T10:11:20.361Z,2.43
2022-08-22T10:14:22.347Z,2.53
2022-08-22T10:16:59.613Z,2.50
2022-08-22T10:19:30.621Z,2.40
2022-08-22T10:22:38.298Z,2.30
2022-08-22T10:25:33.506Z,2.67
2022-08-22T10:28:36.599Z,2.70
2022-08-22T10:31:24.110Z,2.63
2022-08-22T10:34:04.976Z,2.97
2022-08-22T10:37:10.650Z,2.00
2022-08-22T10:39:45.537Z,2.70
2022-08-22T10:42:35.094Z,2.10
2022-08-22T10:45:36.480Z,2.13
2022-08-22T10:48:07.986Z,2.33
2022-08-22T10:50:49.232Z,2.70
2022-08-22T10:56:00.837Z,2.30
2022-08-22T10:58:29.979Z,2.23
2022-08-22T11:00:56.447Z,2.60
2022-08-22T11:03:37.785Z,2.20
2022-08-22T11:06:31.070Z,2.53
2022-08-22T11:09:17.212Z,2.30
2022-08-22T11:12:19.024Z,2.80
2022-08-22T11:14:51.336Z,2.00
2022-08-22T11:17:30.931Z,1.67
2022-08-22T11:20:16.245Z,1.80
2022-08-22T11:23:07.780Z,1.47
2022-08-22T11:26:01.743Z,1.60
2022-08-22T11:29:11.314Z,1.53
2022-08-22T11:32:14.866Z,1.30
2022-08-22T11:34:56.114Z,1.70
2022-08-22T11:37:42.526Z,1.60
2022-08-22T11:40:31.657Z,1.70
2022-08-22T11:43:24.092Z,1.67
2022-08-22T11:45:52.346Z,1.70
2022-08-22T11:48:37.551Z,1.40
2022-08-22T11:51:24.823Z,1.50
2022-08-22T11:54:13.036Z,1.60
2022-08-22T11:56:48.343Z,1.50
2022-08-22T11:59:18.826Z,1.50
2022-08-22T12:02:04.628Z,1.37
2022-08-22T12:04:42.664Z,1.43
2022-08-22T12:07:23.070Z,1.43
2022-08-22T12:12:25.143Z,1.70
2022-08-22T12:15:36.109Z,1.55
2022-08-22T12:18:17.759Z,1.60
2022-08-22T12:21:25.490Z,1.40
2022-08-22T12:23:58.171Z,1.60
2022-08-22T12:26:49.937Z,1.30
2022-08-22T12:30:03.379Z,1.83
2022-08-22T12:32:55.806Z,1.60
2022-08-22T12:35:40.414Z,1.47
2022-08-22T12:38:26.611Z,1.27
2022-08-22T12:41:28.492Z,1.23
2022-08-22T12:44:32.113Z,1.53
2022-08-22T12:47:17.422Z,1.50
2022-08-22T12:50:07.144Z,1.30
2022-08-22T12:53:03.160Z,1.23
2022-08-22T12:55:51.651Z,1.53
2022-08-22T12:58:55.538Z,1.48
2022-08-22T13:01:34.148Z,1.43
2022-08-22T13:04:04.542Z,1.35
2022-08-22T13:06:42.175Z,1.90
2022-08-22T13:09:32.907Z,1.70
2022-08-22T13:12:21.162Z,1.43
2022-08-22T13:14:51.025Z,1.48
2022-08-22T13:17:25.168Z,1.77
2022-08-22T13:19:55.077Z,1.70
2022-08-22T13:22:29.102Z,1.37
2022-08-22T13:25:05.075Z,2.00
2022-08-22T13:27:40.682Z,1.40
2022-08-22T13:30:24.585Z,1.50
2022-08-22T13:32:54.181Z,1.90
2022-08-22T13:35:24.628Z,1.50
2022-08-22T13:37:55.774Z,1.60
2022-08-22T13:40:28.215Z,1.23
2022-08-22T13:43:12.089Z,1.30
2022-08-22T13:45:41.760Z,1.40
2022-08-22T13:48:11.413Z,1.63
2022-08-22T13:50:55.684Z,1.30
2022-08-22T13:53:36.788Z,1.37
2022-08-22T13:56:15.613Z,1.40
2022-08-22T14:01:25.291Z,1.20
2022-08-22T14:03:55.381Z,1.30
2022-08-22T14:06:46.255Z,1.23
2022-08-22T14:09:32.900Z,1.40
2022-08-22T14:12:33.481Z,1.30
2022-08-22T14:15:22.337Z,1.47
2022-08-22T14:17:52.277Z,1.43
2022-08-22T14:20:33.441Z,1.37
2022-08-22T14:23:25.302Z,1.40
2022-08-22T14:25:54.574Z,1.23
2022-08-22T14:28:28.289Z,1.40
2022-08-22T14:31:13.276Z,1.37
2022-08-22T14:33:47.376Z,1.67
2022-08-22T14:36:22.309Z,1.40
2022-08-22T14:38:57.232Z,1.60
2022-08-22T14:41:52.374Z,1.30
2022-08-22T14:44:49.623Z,1.60
2022-08-22T14:47:55.303Z,1.60
2022-08-22T14:50:42.292Z,1.30
2022-08-22T14:53:24.933Z,1.40
2022-08-22T14:56:12.208Z,1.20
2022-08-22T14:59:04.903Z,1.13
2022-08-22T15:01:35.555Z,1.17
2022-08-22T15:04:11.182Z,1.47
2022-08-22T15:06:47.857Z,1.40
2022-08-22T15:09:34.923Z,1.67
2022-08-22T15:12:04.806Z,1.50
2022-08-22T15:14:36.249Z,1.40
2022-08-22T15:17:06.798Z,1.30
2022-08-22T15:19:33.255Z,1.20
2022-08-22T15:22:16.235Z,1.20
2022-08-22T15:24:45.762Z,1.40
2022-08-22T15:27:18.037Z,1.10
2022-08-22T15:29:52.926Z,1.30
2022-08-22T15:32:26.577Z,1.17
2022-08-22T15:34:54.686Z,1.37
2022-08-22T15:37:21.887Z,1.37
2022-08-22T15:40:12.037Z,1.53
2022-08-22T15:42:46.207Z,1.13
2022-08-22T15:45:22.911Z,1.63
2022-08-22T15:47:52.665Z,1.40
2022-08-22T15:50:55.176Z,1.40
2022-08-22T15:53:24.820Z,1.20
2022-08-22T15:56:11.505Z,1.93
2022-08-22T15:58:39.531Z,1.57
2022-08-22T16:01:22.253Z,1.47
2022-08-22T16:04:03.844Z,1.30
2022-08-22T16:06:49.287Z,1.70
2022-08-22T16:09:28.878Z,1.30
2022-08-22T16:11:56.166Z,1.40
2022-08-22T16:14:35.037Z,1.30
2022-08-22T16:17:07.141Z,1.27
2022-08-22T16:19:35.397Z,1.30
2022-08-22T16:22:05.469Z,1.50
2022-08-22T16:24:36.816Z,1.50
2022-08-22T16:27:25.108Z,1.20
2022-08-22T16:30:00.334Z,1.50
2022-08-22T16:32:27.221Z,1.30
2022-08-22T16:34:54.255Z,1.40
2022-08-22T16:37:44.304Z,1.10
2022-08-22T16:40:29.719Z,1.20
2022-08-22T16:43:13.881Z,1.30
2022-08-22T16:45:43.030Z,1.40
2022-08-22T16:48:35.567Z,1.20
2022-08-22T16:51:14.511Z,1.20
2022-08-22T16:53:45.869Z,1.20
2022-08-22T16:56:18.276Z,1.30
2022-08-22T16:59:22.309Z,1.40
2022-08-22T17:02:08.550Z,1.37
2022-08-22T17:04:49.565Z,1.40
2022-08-22T17:07:38.347Z,1.37
2022-08-22T17:10:31.983Z,1.40
2022-08-22T17:13:01.446Z,1.33
2022-08-22T17:15:57.298Z,1.30
2022-08-22T17:18:34.661Z,1.50
2022-08-22T17:21:03.922Z,1.60
2022-08-22T17:23:55.006Z,1.25
2022-08-22T17:26:33.799Z,1.57
2022-08-22T17:29:07.949Z,1.75
2022-08-22T17:32:03.587Z,1.70
2022-08-22T17:34:41.724Z,1.80
2022-08-22T17:37:21.246Z,1.40
2022-08-22T17:40:09.376Z,1.93
2022-08-22T17:42:42.855Z,1.53
2022-08-22T17:45:27.576Z,1.83
2022-08-22T17:48:07.676Z,1.70
2022-08-22T17:50:57.742Z,1.90
2022-08-22T17:53:36.350Z,1.53
2022-08-22T17:56:23.850Z,1.70
2022-08-22T17:59:04.551Z,1.60
2022-08-22T18:01:44.898Z,1.47
2022-08-22T18:04:19.727Z,1.47
2022-08-22T18:07:18.401Z,2.03
2022-08-22T18:09:50.882Z,2.10
2022-08-22T18:12:24.294Z,1.60
2022-08-22T18:14:59.273Z,1.70
2022-08-22T18:17:31.474Z,1.90
2022-08-22T18:20:07.227Z,1.63
2022-08-22T18:22:42.332Z,1.60
2022-08-22T18:25:27.483Z,1.90
2022-08-22T18:27:56.734Z,2.07
2022-08-22T18:30:25.287Z,1.70
2022-08-22T18:33:09.442Z,1.80
2022-08-22T18:36:15.156Z,1.73
2022-08-22T18:38:49.103Z,1.80
2022-08-22T18:41:29.089Z,2.03
2022-08-22T18:44:01.194Z,2.00
2022-08-22T18:46:47.950Z,1.80
2022-08-22T18:49:24.521Z,2.00
2022-08-22T18:52:08.461Z,1.60
2022-08-22T18:54:38.693Z,2.00
2022-08-22T18:57:44.104Z,1.73
2022-08-22T19:00:20.400Z,1.90
2022-08-22T19:03:11.706Z,2.20
2022-08-22T19:05:52.978Z,2.10
2022-08-22T19:08:44.616Z,1.90
2022-08-22T19:11:33.823Z,1.70
2022-08-22T19:14:40.760Z,2.00
2022-08-22T19:17:25.320Z,1.90
2022-08-22T19:20:00.092Z,1.63
2022-08-22T19:22:32.334Z,1.50
2022-08-22T19:25:01.833Z,1.73
2022-08-22T19:27:31.459Z,1.80
2022-08-22T19:30:01.491Z,1.77
2022-08-22T19:32:46.349Z,2.00
2022-08-22T19:35:45.047Z,1.80
2022-08-22T19:38:12.870Z,1.73
2022-08-22T19:40:45.990Z,1.57
2022-08-22T19:43:27.173Z,1.60
2022-08-22T19:45:54.465Z,2.10
2022-08-22T19:48:30.615Z,2.07
2022-08-22T19:51:14.133Z,2.03
2022-08-22T19:53:48.189Z,1.90
2022-08-22T19:56:29.013Z,1.67
2022-08-22T19:59:00.958Z,1.70
2022-08-22T20:01:49.157Z,1.77
2022-08-22T20:04:46.318Z,1.90
2022-08-22T20:07:21.796Z,1.87
2022-08-22T20:09:50.951Z,1.80
2022-08-22T20:12:29.329Z,1.70
2022-08-22T20:14:56.244Z,1.73
2022-08-22T20:17:25.798Z,2.00
2022-08-22T20:22:38.875Z,1.90
2022-08-22T20:25:41.535Z,1.90
2022-08-22T20:28:08.064Z,1.97
2022-08-22T20:30:42.907Z,1.95
2022-08-22T20:33:16.797Z,1.77
2022-08-22T20:35:59.086Z,2.07
2022-08-22T20:38:35.080Z,1.90
2022-08-22T20:41:21.938Z,1.90
2022-08-22T20:44:09.067Z,1.83
2022-08-22T20:46:44.854Z,1.90
2022-08-22T20:49:19.150Z,1.60
2022-08-22T20:51:56.748Z,1.83
2022-08-22T20:54:26.240Z,1.90
2022-08-22T20:56:57.044Z,1.67
2022-08-22T20:59:26.405Z,1.60
2022-08-22T21:02:13.102Z,1.90
2022-08-22T21:04:50.706Z,1.80
2022-08-22T21:12:27.023Z,1.73
2022-08-22T21:14:53.520Z,2.13
2022-08-22T21:17:29.491Z,1.80
2022-08-22T21:20:20.868Z,1.80
2022-08-22T21:22:48.149Z,2.23
2022-08-22T21:25:14.975Z,1.90
2022-08-22T21:27:45.231Z,2.00
2022-08-22T21:30:12.065Z,2.10
2022-08-22T21:32:50.050Z,1.60
2022-08-22T21:35:30.967Z,1.80
2022-08-22T21:37:58.099Z,1.80
2022-08-22T21:40:34.508Z,1.97
2022-08-22T21:43:11.133Z,1.97
2022-08-22T21:45:37.574Z,1.60
2022-08-22T21:48:34.111Z,1.90
2022-08-22T21:51:23.775Z,2.10
2022-08-22T21:54:16.187Z,1.60
2022-08-22T21:56:37.377Z,1.90
2022-08-22T21:59:51.526Z,2.00
2022-08-22T22:02:31.265Z,2.10
2022-08-22T22:05:02.268Z,1.93
2022-08-22T22:07:29.484Z,2.10
2022-08-22T22:09:56.244Z,2.03
2022-08-22T22:12:23.872Z,2.13
2022-08-22T22:14:51.036Z,2.27
2022-08-22T22:17:19.440Z,2.13
2022-08-22T22:19:46.891Z,1.83
2022-08-22T22:22:13.866Z,2.13
2022-08-22T22:24:40.386Z,1.87
2022-08-22T22:27:14.898Z,1.90
2022-08-22T22:29:43.829Z,2.43
2022-08-22T22:32:10.354Z,2.03
2022-08-22T22:34:39.641Z,2.20
2022-08-22T22:37:07.832Z,2.30
2022-08-22T22:39:35.376Z,2.50
2022-08-22T22:42:03.110Z,2.37
2022-08-22T22:44:29.723Z,2.30
2022-08-22T22:46:59.444Z,2.53
2022-08-22T22:51:53.273Z,2.33
2022-08-22T22:54:20.142Z,2.40
2022-08-22T22:56:54.607Z,2.23
2022-08-22T22:59:24.585Z,2.50
2022-08-22T23:02:07.632Z,2.30
2022-08-22T23:04:36.000Z,2.30
2022-08-22T23:07:03.704Z,2.20
2022-08-22T23:09:38.809Z,2.00
2022-08-22T23:12:12.843Z,2.30
2022-08-22T23:14:39.571Z,2.20
2022-08-22T23:17:06.414Z,2.17
2022-08-22T23:19:33.499Z,2.30
2022-08-22T23:22:00.895Z,2.43
2022-08-22T23:24:28.758Z,2.20
2022-08-22T23:26:55.422Z,2.43
2022-08-22T23:29:22.144Z,2.30
2022-08-22T23:31:54.181Z,2.10
2022-08-22T23:34:23.911Z,2.20
2022-08-22T23:36:52.587Z,2.13
2022-08-22T23:39:21.339Z,2.00
2022-08-22T23:41:48.717Z,2.27
2022-08-22T23:44:18.401Z,2.40
2022-08-22T23:46:45.472Z,2.28
2022-08-22T23:49:12.753Z,2.23
2022-08-22T23:51:39.538Z,2.03
2022-08-22T23:54:06.642Z,2.20
2022-08-22T23:56:39.419Z,2.20
2022-08-22T23:59:09.272Z,2.40
